Summary for K7042

Overbrook, Norfolk, VA 23513-4100
Join the PWSweather.com Network
View data in metric units
Latest Conditions
Updated 2:10:07 AM EDT Thursday, Apr 24, 2014
Data Currently Today's Max Today's Min Today's Average
Temperature 52.0°F11.1°C 55.6°F13.1°C 52.0°F11.1°C 53.6°F12.0°C
Dew Point 38.1°F3.4°C 38.5°F3.6°C 37.5°F3.1°C 37.9°F3.3°C
Winds 5.0 mph N8.0 kmh N 7.0 mph N11.3 kmh N CalmCalm 2.8 mph4.5 kmh
Wind Gusts 9.0 mph14.5 kmh 18.0 mph29.0 kmh 4.0 mph6.4 kmh 9.1 mph14.6 kmh
Humidity 59% 59% 51% 55%
Pressure 29.99 in1015.6 mb 29.99 in1015.6 mb 29.95 in1014.2 mb 29.97 in1014.9 mb
Precipitation 0.00 in0.0 mm - - 0.00 in0.0 mm
Trends
 
Station Profile
OverbrookNorfolk, VA 23513-4100

Lat: 36.875, Lon: -76.244
Elevation: 20
Station Type: Davis Vantage Pro 2

Detailed Summary for Thu, Apr 24, 2014
Hour (EDT) Temperature Dew Point Humidity Winds Wind Gusts Pressure Precip Precip Rate Daily Precip Total
02:10 AM 52.0°F11.1°C 38.1°F3.4°C 59% 5.0 mph N8.0 kmh N 9.0 mph14.5 kmh 29.99 in1015.6 mb 0.00 in0.0 mm 0.00 in/hr0.0 mm/hr 0.00 in0.0 mm
02:05 AM 52.1°F11.2°C 38.2°F3.4°C 59% Calm Calm 5.0 mph8.0 kmh 29.99 in1015.6 mb 0.00 in0.0 mm 0.00 in/hr0.0 mm/hr 0.00 in0.0 mm
02:00 AM 52.3°F11.3°C 38.0°F3.3°C 58% 3.0 mph NNW4.8 kmh NNW 9.0 mph14.5 kmh 29.99 in1015.6 mb 0.00 in0.0 mm 0.00 in/hr0.0 mm/hr 0.00 in0.0 mm
01:55 AM 52.4°F11.3°C 38.1°F3.4°C 58% 3.0 mph N4.8 kmh N 11.0 mph17.7 kmh 29.99 in1015.6 mb 0.00 in0.0 mm 0.00 in/hr0.0 mm/hr 0.00 in0.0 mm
01:50 AM 52.5°F11.4°C 38.2°F3.4°C 58% 3.0 mph NW4.8 kmh NW 6.0 mph9.7 kmh 29.99 in1015.6 mb 0.00 in0.0 mm 0.00 in/hr0.0 mm/hr 0.00 in0.0 mm
01:45 AM 52.6°F11.4°C 37.8°F3.2°C 57% 1.0 mph NNE1.6 kmh NNE 6.0 mph9.7 kmh 29.99 in1015.6 mb 0.00 in0.0 mm 0.00 in/hr0.0 mm/hr 0.00 in0.0 mm
01:40 AM 52.8°F11.6°C 37.6°F3.1°C 56% 2.0 mph NE3.2 kmh NE 6.0 mph9.7 kmh 29.98 in1015.2 mb 0.00 in0.0 mm 0.00 in/hr0.0 mm/hr 0.00 in0.0 mm
01:35 AM 52.9°F11.6°C 37.7°F3.2°C 56% 4.0 mph NW6.4 kmh NW 9.0 mph14.5 kmh 29.98 in1015.2 mb 0.00 in0.0 mm 0.00 in/hr0.0 mm/hr 0.00 in0.0 mm
01:30 AM 53.1°F11.7°C 38.3°F3.5°C 57% 1.0 mph NW1.6 kmh NW 10.0 mph16.1 kmh 29.98 in1015.2 mb 0.00 in0.0 mm 0.00 in/hr0.0 mm/hr 0.00 in0.0 mm
01:25 AM 53.1°F11.7°C 38.3°F3.5°C 57% 2.0 mph N3.2 kmh N 10.0 mph16.1 kmh 29.98 in1015.2 mb 0.00 in0.0 mm 0.00 in/hr0.0 mm/hr 0.00 in0.0 mm
01:20 AM 53.1°F11.7°C 38.3°F3.5°C 57% 7.0 mph N11.3 kmh N 18.0 mph29.0 kmh 29.98 in1015.2 mb 0.00 in0.0 mm 0.00 in/hr0.0 mm/hr 0.00 in0.0 mm
01:15 AM 53.3°F11.8°C 38.5°F3.6°C 57% Calm Calm 7.0 mph11.3 kmh 29.98 in1015.2 mb 0.00 in0.0 mm 0.00 in/hr0.0 mm/hr 0.00 in0.0 mm
01:10 AM 53.4°F11.9°C 38.1°F3.4°C 56% 2.0 mph NW3.2 kmh NW 11.0 mph17.7 kmh 29.97 in1014.9 mb 0.00 in0.0 mm 0.00 in/hr0.0 mm/hr 0.00 in0.0 mm
01:05 AM 53.5°F11.9°C 37.8°F3.2°C 55% 3.0 mph NW4.8 kmh NW 8.0 mph12.9 kmh 29.97 in1014.9 mb 0.00 in0.0 mm 0.00 in/hr0.0 mm/hr 0.00 in0.0 mm
01:00 AM 53.7°F12.1°C 37.9°F3.3°C 55% 1.0 mph ENE1.6 kmh ENE 8.0 mph12.9 kmh 29.97 in1014.9 mb 0.00 in0.0 mm 0.00 in/hr0.0 mm/hr 0.00 in0.0 mm
12:55 AM 53.9°F12.2°C 37.7°F3.2°C 54% 4.0 mph NNW6.4 kmh NNW 11.0 mph17.7 kmh 29.97 in1014.9 mb 0.00 in0.0 mm 0.00 in/hr0.0 mm/hr 0.00 in0.0 mm
12:50 AM 53.9°F12.2°C 37.7°F3.2°C 54% 5.0 mph NE8.0 kmh NE 10.0 mph16.1 kmh 29.97 in1014.9 mb 0.00 in0.0 mm 0.00 in/hr0.0 mm/hr 0.00 in0.0 mm
12:45 AM 53.9°F12.2°C 37.7°F3.2°C 54% 4.0 mph N6.4 kmh N 14.0 mph22.5 kmh 29.96 in1014.6 mb 0.00 in0.0 mm 0.00 in/hr0.0 mm/hr 0.00 in0.0 mm
12:40 AM 54.1°F12.3°C 38.3°F3.5°C 55% Calm Calm 4.0 mph6.4 kmh 29.96 in1014.6 mb 0.00 in0.0 mm 0.00 in/hr0.0 mm/hr 0.00 in0.0 mm
12:35 AM 54.3°F12.4°C 38.0°F3.3°C 54% 4.0 mph NW6.4 kmh NW 6.0 mph9.7 kmh 29.97 in1014.9 mb 0.00 in0.0 mm 0.00 in/hr0.0 mm/hr 0.00 in0.0 mm
12:30 AM 54.5°F12.5°C 38.2°F3.4°C 54% 1.0 mph NNE1.6 kmh NNE 9.0 mph14.5 kmh 29.97 in1014.9 mb 0.00 in0.0 mm 0.00 in/hr0.0 mm/hr 0.00 in0.0 mm
12:25 AM 54.6°F12.6°C 37.8°F3.2°C 53% 1.0 mph NW1.6 kmh NW 11.0 mph17.7 kmh 29.96 in1014.6 mb 0.00 in0.0 mm 0.00 in/hr0.0 mm/hr 0.00 in0.0 mm
12:20 AM 54.9°F12.7°C 37.6°F3.1°C 52% 1.0 mph N1.6 kmh N 6.0 mph9.7 kmh 29.96 in1014.6 mb 0.00 in0.0 mm 0.00 in/hr0.0 mm/hr 0.00 in0.0 mm
12:15 AM 55.1°F12.8°C 37.8°F3.2°C 52% 3.0 mph W4.8 kmh W 9.0 mph14.5 kmh 29.95 in1014.2 mb 0.00 in0.0 mm 0.00 in/hr0.0 mm/hr 0.00 in0.0 mm
12:10 AM 55.3°F12.9°C 37.5°F3.1°C 51% 3.0 mph NNE4.8 kmh NNE 11.0 mph17.7 kmh 29.95 in1014.2 mb 0.00 in0.0 mm 0.00 in/hr0.0 mm/hr 0.00 in0.0 mm
12:05 AM 55.4°F13.0°C 37.6°F3.1°C 51% 6.0 mph NNW9.7 kmh NNW 8.0 mph12.9 kmh 29.95 in1014.2 mb 0.00 in0.0 mm 0.00 in/hr0.0 mm/hr 0.00 in0.0 mm
12:00 AM 55.6°F13.1°C 37.8°F3.2°C 51% 6.0 mph N9.7 kmh N 15.0 mph24.1 kmh 29.95 in1014.2 mb 0.00 in0.0 mm 0.00 in/hr0.0 mm/hr 0.00 in0.0 mm
WeatherForYou.com, LLC is not responsible for any damages or problems caused by this service. Current weather conditions are obtained from the closest station including government and personal stations which may have varying degrees of accuracy. Weather forecasts are derived from the NOAA NDFD and obtained through HAMweather's Aeris Weather API. Like all things, this site belongs to Jesus Christ... He just trusts me to maintain it. If you have any questions or comments email webmaster@weatherforyou.com

Copyright © 2014, WeatherForYou.com LLC. All rights reserved.